Time;durP1;ratioP1;P1;durP2;ratioP2;P2;SDS_P1;SDS_P2;PMS_P1;PMS_P2;Temp;Humidity;BMP_temperature;BMP_pressure;BME280_temperature;BME280_humidity;BME280_pressure;Samples;Min_cycle;Max_cycle;Signal;HPM_P1;HPM_P2
2022/03/18 00:02:26;;;;;;;23.50;14.10;;;;;;;1.66;47.41;100799.64;105248;1269;69204;-76
2022/03/18 00:04:54;;;;;;;22.80;14.40;;;;;;;1.64;47.41;100804.39;105220;1270;73478;-76
2022/03/18 00:07:21;;;;;;;25.00;14.80;;;;;;;1.61;47.60;100807.55;105268;1270;62072;-77
2022/03/18 00:09:48;;;;;;;24.90;14.30;;;;;;;1.58;47.67;100815.25;105267;1270;62001;-77
2022/03/18 00:12:15;;;;;;;21.10;13.30;;;;;;;1.55;47.79;100822.27;105288;1270;74176;-76
2022/03/18 00:14:42;;;;;;;23.60;13.40;;;;;;;1.51;48.07;100825.60;105246;1270;69204;-77
2022/03/18 00:17:10;;;;;;;21.70;14.90;;;;;;;1.47;48.05;100824.38;105282;1271;73407;-77
2022/03/18 00:19:39;;;;;;;19.80;13.60;;;;;;;1.44;48.02;100827.70;105309;1270;62108;-76
2022/03/18 00:22:06;;;;;;;22.90;13.80;;;;;;;1.42;48.13;100827.70;105335;1270;61952;-76
2022/03/18 00:24:34;;;;;;;21.30;14.40;;;;;;;1.40;48.27;100824.02;105244;1270;76190;-78
2022/03/18 00:27:03;;;;;;;19.60;13.10;;;;;;;1.40;48.28;100821.23;105313;1270;70134;-78
2022/03/18 00:29:31;;;;;;;21.70;14.40;;;;;;;1.39;48.27;100819.98;105300;1270;73337;-78
2022/03/18 00:31:58;;;;;;;20.50;12.60;;;;;;;1.38;48.33;100825.25;105047;1271;62162;-77
2022/03/18 00:34:25;;;;;;;22.60;13.50;;;;;;;1.35;48.32;100819.30;105317;1270;62171;-77
2022/03/18 00:36:53;;;;;;;20.10;12.60;;;;;;;1.34;48.33;100817.02;105247;1270;75681;-77
2022/03/18 00:39:19;;;;;;;21.70;13.50;;;;;;;1.33;48.16;100815.27;104958;1270;67315;-75
2022/03/18 00:41:46;;;;;;;20.90;13.00;;;;;;;1.34;48.13;100817.71;105242;1269;62072;-75
2022/03/18 00:44:14;;;;;;;20.50;12.80;;;;;;;1.34;48.16;100811.59;105278;1270;62534;-77
2022/03/18 00:46:41;;;;;;;18.60;12.30;;;;;;;1.33;48.20;100815.63;105398;1270;62182;-76
2022/03/18 00:52:05;;;;;;;19.60;12.30;;;;;;;1.29;48.21;100821.73;105271;1270;69220;-75
2022/03/18 00:54:42;;;;;;;18.30;12.40;;;;;;;1.25;48.12;100819.30;105063;1270;257236;-75
2022/03/18 00:57:10;;;;;;;20.00;12.30;;;;;;;1.23;48.27;100815.98;105261;1270;62194;-75
2022/03/18 00:59:37;;;;;;;19.50;12.60;;;;;;;1.19;48.24;100817.89;105573;1270;62181;-76
2022/03/18 01:02:04;;;;;;;20.10;13.00;;;;;;;1.16;48.31;100819.13;105221;1270;62175;-77
2022/03/18 01:04:30;;;;;;;20.70;12.60;;;;;;;1.14;48.28;100821.91;105228;1270;69077;-76
2022/03/18 01:06:57;;;;;;;18.80;12.00;;;;;;;1.10;48.45;100824.19;105239;1270;74565;-77
2022/03/18 01:09:26;;;;;;;18.80;12.60;;;;;;;1.07;48.43;100824.19;105241;1270;62011;-77
2022/03/18 01:11:54;;;;;;;17.60;12.00;;;;;;;1.04;48.61;100826.80;105279;1270;62032;-77
2022/03/18 01:14:22;;;;;;;20.10;12.10;;;;;;;1.01;48.62;100824.52;105345;1270;77187;-76
2022/03/18 01:16:49;;;;;;;17.80;12.10;;;;;;;1.00;48.71;100822.59;105267;1270;68548;-76
2022/03/18 01:19:15;;;;;;;20.30;12.40;;;;;;;0.98;48.64;100820.33;105249;1270;73401;-77
2022/03/18 01:21:43;;;;;;;19.90;12.50;;;;;;;0.96;48.76;100817.68;105229;1270;62183;-77
2022/03/18 01:24:10;;;;;;;18.00;12.50;;;;;;;0.94;48.77;100816.81;105246;1270;62095;-77
2022/03/18 01:26:37;;;;;;;22.70;12.50;;;;;;;0.91;48.84;100816.64;105238;1270;76050;-76
2022/03/18 01:29:04;;;;;;;19.20;12.60;;;;;;;0.89;48.84;100815.23;105248;1270;69177;-77
2022/03/18 01:31:31;;;;;;;19.70;12.30;;;;;;;0.87;49.02;100815.92;105246;1270;73266;-77
2022/03/18 01:33:57;;;;;;;20.00;13.00;;;;;;;0.83;49.11;100816.61;105261;1270;62094;-77
2022/03/18 01:36:25;;;;;;;21.20;12.80;;;;;;;0.80;49.27;100824.31;105250;1270;62241;-76
2022/03/18 01:38:52;;;;;;;23.30;12.70;;;;;;;0.77;49.24;100823.95;105281;1270;76585;-77
2022/03/18 01:41:19;;;;;;;20.20;11.70;;;;;;;0.76;49.33;100823.95;105273;1271;69531;-76
2022/03/18 01:43:47;;;;;;;19.60;12.00;;;;;;;0.75;49.34;100821.14;105281;1270;74158;-76
2022/03/18 01:46:16;;;;;;;17.00;12.10;;;;;;;0.72;49.45;100818.70;105245;1270;62054;-77
2022/03/18 01:48:43;;;;;;;19.50;12.50;;;;;;;0.69;49.48;100822.72;105505;1270;62106;-78
2022/03/18 01:51:10;;;;;;;18.30;12.80;;;;;;;0.67;49.55;100825.51;105259;1270;77462;-77
2022/03/18 01:53:38;;;;;;;22.70;13.90;;;;;;;0.64;49.75;100826.19;105283;1270;68579;-77
2022/03/18 01:56:06;;;;;;;22.50;13.20;;;;;;;0.60;49.75;100829.67;105278;1270;74448;-78
2022/03/18 01:58:33;;;;;;;23.30;13.90;;;;;;;0.58;49.88;100828.98;105327;1270;62186;-77
2022/03/18 02:01:00;;;;;;;22.30;14.00;;;;;;;0.56;49.89;100826.69;105533;1269;62072;-77
2022/03/18 02:03:26;;;;;;;22.50;13.50;;;;;;;0.53;50.07;100830.54;105260;1270;76098;-77
2022/03/18 02:05:53;;;;;;;17.50;12.30;;;;;;;0.50;50.27;100833.31;104973;1271;61975;-78
2022/03/18 02:08:20;;;;;;;22.60;13.40;;;;;;;0.47;50.25;100832.60;105243;1270;62162;-78
2022/03/18 02:10:46;;;;;;;20.50;13.40;;;;;;;0.44;50.36;100835.40;105045;1271;62140;-77
2022/03/18 02:13:13;;;;;;;20.50;13.90;;;;;;;0.42;50.46;100836.09;105271;1270;62091;-78
2022/03/18 02:15:39;;;;;;;21.60;13.40;;;;;;;0.38;50.64;100832.05;105265;1270;62171;-77
2022/03/18 02:18:06;;;;;;;22.90;13.90;;;;;;;0.35;50.72;100839.55;105282;1269;62053;-77
2022/03/18 02:20:34;;;;;;;20.70;13.80;;;;;;;0.32;50.85;100843.55;105345;1270;62067;-78
2022/03/18 02:23:02;;;;;;;18.80;13.60;;;;;;;0.29;51.06;100838.14;105195;1271;62175;-77
2022/03/18 02:25:30;;;;;;;25.20;14.70;;;;;;;0.27;51.12;100843.70;105390;1270;62063;-77
2022/03/18 02:28:01;;;;;;;27.90;15.20;;;;;;;0.24;51.20;100846.48;105403;1270;76196;-76
2022/03/18 02:30:30;;;;;;;25.60;15.00;;;;;;;0.22;51.30;100846.65;105600;1270;69566;-76
2022/03/18 02:32:57;;;;;;;23.20;13.60;;;;;;;0.19;51.49;100851.54;105907;1270;73487;-76
2022/03/18 02:35:26;;;;;;;24.80;13.90;;;;;;;0.16;51.58;100855.72;105998;1270;61965;-77
2022/03/18 02:37:52;;;;;;;22.30;14.30;;;;;;;0.13;51.67;100858.67;106339;1270;61965;-77
2022/03/18 02:40:19;;;;;;;19.50;14.10;;;;;;;0.12;51.75;100861.46;107588;1270;61003;-76
2022/03/18 02:42:46;;;;;;;20.50;13.10;;;;;;;0.09;51.89;100862.49;107473;1270;69128;-78
2022/03/18 02:45:12;;;;;;;24.00;14.30;;;;;;;0.07;52.16;100864.58;107493;1269;72937;-77
2022/03/18 02:47:39;;;;;;;21.50;14.60;;;;;;;0.06;52.08;100865.45;107188;1268;62098;-77
2022/03/18 02:50:06;;;;;;;21.00;14.90;;;;;;;0.04;52.16;100867.70;105122;1271;62171;-76
2022/03/18 02:52:34;;;;;;;23.00;14.80;;;;;;;0.03;52.11;100872.23;105341;1270;76880;-75
2022/03/18 02:55:01;;;;;;;23.70;15.80;;;;;;;-0.01;52.42;100873.44;105336;1270;70133;-76
2022/03/18 02:57:28;;;;;;;24.50;15.00;;;;;;;-0.02;52.45;100874.83;105353;1270;74768;-76
2022/03/18 02:59:55;;;;;;;20.90;15.10;;;;;;;-0.05;52.59;100875.16;105296;1270;62560;-77
2022/03/18 03:02:21;;;;;;;21.40;14.10;;;;;;;-0.08;52.63;100875.31;105307;1270;62040;-76
2022/03/18 03:10:18;;;;;;;21.90;14.90;;;;;;;-0.20;52.93;100888.16;105278;1270;72751;-76
2022/03/18 03:12:45;;;;;;;24.80;14.60;;;;;;;-0.23;53.14;100885.52;105302;1270;62166;-77
2022/03/18 03:15:11;;;;;;;22.70;15.10;;;;;;;-0.26;53.17;100887.95;105245;1270;62006;-76
2022/03/18 03:17:38;;;;;;;22.50;15.00;;;;;;;-0.29;53.26;100888.98;105234;1269;62114;-76
2022/03/18 03:20:05;;;;;;;23.80;14.40;;;;;;;-0.32;53.34;100894.36;105263;1270;62050;-76
2022/03/18 03:22:32;;;;;;;23.40;14.80;;;;;;;-0.35;53.57;100895.55;105230;1270;74235;-77
2022/03/18 03:24:58;;;;;;;21.10;14.00;;;;;;;-0.37;53.56;100895.72;105281;1270;62101;-76
2022/03/18 03:27:29;;;;;;;22.40;15.10;;;;;;;-0.39;53.75;100893.42;105232;1270;62069;-77
2022/03/18 03:30:00;;;;;;;24.50;14.30;;;;;;;-0.42;53.78;100894.46;105318;1270;76188;-77
2022/03/18 03:32:27;;;;;;;22.70;14.60;;;;;;;-0.45;54.07;100899.84;105304;1269;69591;-77
2022/03/18 03:34:55;;;;;;;24.10;14.30;;;;;;;-0.49;54.22;100901.55;105256;1270;70515;-76
2022/03/18 03:37:21;;;;;;;20.70;15.00;;;;;;;-0.51;54.30;100904.67;105039;1271;62101;-76
2022/03/18 03:39:48;;;;;;;21.80;15.10;;;;;;;-0.53;54.36;100904.83;105252;1270;61971;-76
2022/03/18 03:42:15;;;;;;;28.00;16.30;;;;;;;-0.55;54.45;100906.73;105288;1270;76039;-76
2022/03/18 03:44:41;;;;;;;24.10;15.80;;;;;;;-0.56;54.45;100911.27;105239;1269;69412;-76
2022/03/18 03:47:08;;;;;;;25.00;16.00;;;;;;;-0.57;54.61;100915.45;105197;1270;74236;-76
2022/03/18 03:49:34;;;;;;;25.10;15.90;;;;;;;-0.60;54.79;100912.10;105252;1270;62197;-76
2022/03/18 03:52:01;;;;;;;27.80;16.20;;;;;;;-0.63;55.03;100909.63;105080;1270;62405;-77
2022/03/18 03:54:27;;;;;;;23.80;14.70;;;;;;;-0.64;55.06;100913.28;105250;1270;62430;-76
2022/03/18 03:56:55;;;;;;;22.00;15.70;;;;;;;-0.66;55.34;100918.50;105282;1268;62179;-76
2022/03/18 03:59:22;;;;;;;25.20;16.20;;;;;;;-0.67;55.34;100922.16;105560;1270;74347;-78
2022/03/18 04:01:49;;;;;;;25.00;14.20;;;;;;;-0.68;55.36;100920.23;105256;1270;62151;-76
2022/03/18 04:04:16;;;;;;;22.40;15.60;;;;;;;-0.70;55.41;100922.13;105289;1270;62585;-77
2022/03/18 04:06:43;;;;;;;24.30;15.20;;;;;;;-0.70;55.54;100920.56;105285;1270;76046;-76
2022/03/18 04:09:09;;;;;;;24.60;15.20;;;;;;;-0.70;55.50;100922.48;104543;1270;1002686;-77
2022/03/18 04:11:36;;;;;;;26.00;15.40;;;;;;;-0.71;55.39;100924.91;105275;1270;73158;-77
2022/03/18 04:14:03;;;;;;;27.10;16.00;;;;;;;-0.71;55.43;100929.09;105305;1270;62317;-77
2022/03/18 04:16:29;;;;;;;22.30;14.70;;;;;;;-0.72;55.49;100931.36;105297;1270;62620;-77
2022/03/18 04:18:56;;;;;;;22.50;14.10;;;;;;;-0.74;55.43;100932.05;105249;1270;75977;-77
2022/03/18 04:21:22;;;;;;;18.20;13.60;;;;;;;-0.74;55.39;100932.73;105272;1270;69357;-76
2022/03/18 04:23:49;;;;;;;23.70;14.10;;;;;;;-0.75;55.48;100940.06;105245;1269;73318;-77
2022/03/18 04:26:16;;;;;;;22.80;14.00;;;;;;;-0.78;55.43;100937.77;105246;1270;62086;-75
2022/03/18 04:28:43;;;;;;;24.40;14.00;;;;;;;-0.80;55.51;100940.35;105276;1270;62182;-76
2022/03/18 04:31:10;;;;;;;20.30;13.40;;;;;;;-0.82;55.61;100940.33;105251;1269;75944;-75
2022/03/18 04:33:36;;;;;;;24.10;14.70;;;;;;;-0.84;55.64;100946.60;105239;1270;69491;-76
2022/03/18 04:36:03;;;;;;;18.90;14.40;;;;;;;-0.85;55.62;100948.16;105227;1270;62002;-76
2022/03/18 04:38:30;;;;;;;21.60;13.80;;;;;;;-0.85;55.65;100951.11;105247;1270;61983;-77
2022/03/18 04:40:56;;;;;;;17.80;12.60;;;;;;;-0.85;55.67;100958.62;104548;1270;1003373;-76
2022/03/18 04:43:24;;;;;;;20.60;13.70;;;;;;;-0.86;55.64;100956.16;105223;1270;62082;-76
2022/03/18 04:45:50;;;;;;;21.70;13.10;;;;;;;-0.85;55.66;100965.77;105243;1270;69618;-76
2022/03/18 04:48:17;;;;;;;18.80;14.10;;;;;;;-0.85;55.72;100966.98;105061;1271;62190;-76
2022/03/18 04:50:43;;;;;;;22.30;13.20;;;;;;;-0.84;55.47;100972.25;105282;1269;62490;-76
2022/03/18 04:53:10;;;;;;;22.80;14.90;;;;;;;-0.84;55.65;100972.41;105260;1269;62099;-76
2022/03/18 04:55:36;;;;;;;20.10;13.40;;;;;;;-0.85;55.53;100972.92;105245;1270;62113;-77
2022/03/18 04:58:03;;;;;;;19.50;14.20;;;;;;;-0.86;55.59;100973.61;105277;1269;62072;-77
2022/03/18 05:00:29;;;;;;;21.40;14.30;;;;;;;-0.87;55.59;100977.42;105274;1270;62043;-77
2022/03/18 05:02:56;;;;;;;22.00;14.60;;;;;;;-0.87;55.69;100978.83;105246;1270;62124;-77
2022/03/18 05:05:23;;;;;;;23.20;14.80;;;;;;;-0.87;55.82;100977.44;105301;1269;62076;-78
2022/03/18 05:07:51;;;;;;;25.10;15.20;;;;;;;-0.86;55.81;100983.39;105264;1270;76601;-76
2022/03/18 05:10:19;;;;;;;22.30;15.10;;;;;;;-0.83;55.83;100983.09;105588;1269;69102;-77
2022/03/18 05:12:46;;;;;;;22.00;14.30;;;;;;;-0.65;55.63;100981.37;105256;1270;73275;-77
2022/03/18 05:15:12;;;;;;;20.00;13.90;;;;;;;-0.44;55.35;100973.88;105035;1270;62112;-76
2022/03/18 05:17:40;;;;;;;23.20;15.10;;;;;;;-0.28;55.09;100977.16;105304;1270;62000;-77
2022/03/18 05:20:10;;;;;;;20.90;14.60;;;;;;;-0.11;54.89;100977.31;105276;1269;76077;-77
2022/03/18 05:22:36;;;;;;;22.10;14.20;;;;;;;-0.01;54.74;100982.48;105336;1270;69383;-76
2022/03/18 05:25:03;;;;;;;21.30;14.50;;;;;;;-0.10;54.61;100984.33;105294;1270;73075;-77
2022/03/18 05:27:29;;;;;;;24.60;15.80;;;;;;;-0.25;54.83;100987.17;105290;1270;62083;-77
2022/03/18 05:29:56;;;;;;;24.60;15.80;;;;;;;-0.33;54.99;100989.70;105277;1269;62220;-77
2022/03/18 05:32:22;;;;;;;22.80;15.70;;;;;;;-0.40;55.00;100990.33;105226;1269;62060;-78
2022/03/18 05:34:49;;;;;;;24.50;16.60;;;;;;;-0.46;55.15;100994.30;105245;1270;62098;-77
2022/03/18 05:37:15;;;;;;;24.50;16.10;;;;;;;-0.51;55.34;100998.09;105252;1270;62143;-77
2022/03/18 05:39:42;;;;;;;24.20;16.60;;;;;;;-0.53;55.38;101003.83;105240;1270;62149;-77
2022/03/18 05:42:08;;;;;;;25.40;14.90;;;;;;;-0.55;55.31;101002.77;105297;1270;61984;-76
2022/03/18 05:44:35;;;;;;;27.30;16.30;;;;;;;-0.54;55.47;101004.34;105275;1268;77200;-76
2022/03/18 05:47:02;;;;;;;26.40;16.90;;;;;;;-0.54;55.46;101005.73;105109;1270;70307;-77
2022/03/18 05:49:29;;;;;;;25.90;16.90;;;;;;;-0.51;55.65;101009.60;104946;1271;71601;-78
2022/03/18 05:51:56;;;;;;;32.70;17.30;;;;;;;-0.49;55.60;101011.55;105289;1270;62194;-77
2022/03/18 05:54:22;;;;;;;26.90;17.40;;;;;;;-0.44;55.62;101013.52;105295;1270;62073;-77
2022/03/18 05:56:54;;;;;;;26.40;17.20;;;;;;;-0.40;55.74;101017.23;105161;1270;62171;-77
2022/03/18 05:59:28;;;;;;;20.70;16.10;;;;;;;-0.33;55.85;101019.91;105241;1269;69250;-77
2022/03/18 06:01:57;;;;;;;25.10;16.30;;;;;;;-0.26;55.83;101016.51;105392;1270;74562;-76
2022/03/18 06:04:25;;;;;;;24.50;17.20;;;;;;;-0.18;55.93;101019.38;105225;1271;62821;-77
2022/03/18 06:06:52;;;;;;;28.00;18.20;;;;;;;-0.12;55.67;101021.53;105256;1270;61938;-77
2022/03/18 06:12:06;;;;;;;23.70;16.50;;;;;;;0.03;55.53;101025.66;105363;1269;70305;-77
2022/03/18 06:14:33;;;;;;;26.40;16.60;;;;;;;0.10;55.60;101028.52;105262;1270;73463;-77
2022/03/18 06:17:01;;;;;;;22.80;16.70;;;;;;;0.21;55.35;101028.96;105262;1268;62142;-78
2022/03/18 06:19:29;;;;;;;26.90;16.70;;;;;;;0.27;55.13;101034.43;105505;1270;62103;-78
2022/03/18 06:21:57;;;;;;;27.30;16.80;;;;;;;0.33;54.91;101038.50;105213;1271;76919;-77
2022/03/18 06:24:24;;;;;;;29.00;17.30;;;;;;;0.40;55.02;101040.64;105509;1270;69571;-76
2022/03/18 06:26:51;;;;;;;20.30;14.90;;;;;;;0.50;54.97;101043.17;105263;1270;73462;-77
2022/03/18 06:29:19;;;;;;;25.50;17.30;;;;;;;0.60;54.67;101044.64;105272;1270;62097;-77
2022/03/18 06:31:46;;;;;;;24.20;16.60;;;;;;;0.69;54.49;101046.11;105323;1270;61985;-77
2022/03/18 06:34:14;;;;;;;24.10;16.60;;;;;;;0.77;54.23;101046.32;105315;1269;74372;-77
2022/03/18 06:36:41;;;;;;;23.50;15.00;;;;;;;0.85;54.13;101048.13;105290;1270;69170;-76
2022/03/18 06:39:08;;;;;;;23.40;15.30;;;;;;;0.96;54.15;101048.70;105273;1270;73463;-76
2022/03/18 06:41:35;;;;;;;23.50;17.00;;;;;;;1.07;54.00;101051.74;105220;1270;62211;-78
2022/03/18 06:44:02;;;;;;;26.10;17.00;;;;;;;1.17;53.70;101049.49;105335;1270;62056;-77
2022/03/18 06:46:29;;;;;;;24.30;16.80;;;;;;;1.29;53.70;101049.21;105044;1270;74998;-75
2022/03/18 06:48:55;;;;;;;25.40;18.10;;;;;;;1.39;53.41;101046.27;103067;1270;1003719;-77
2022/03/18 06:51:22;;;;;;;27.50;17.30;;;;;;;1.47;53.43;101051.36;105037;1270;62232;-76
2022/03/18 06:53:49;;;;;;;26.50;17.10;;;;;;;1.56;53.11;101054.04;105266;1270;62010;-79
2022/03/18 06:56:15;;;;;;;25.00;18.00;;;;;;;1.63;53.04;101050.89;105260;1270;62237;-77
2022/03/18 06:58:43;;;;;;;27.00;17.90;;;;;;;1.71;53.06;101049.51;105266;1270;62076;-78
2022/03/18 07:01:10;;;;;;;25.40;19.10;;;;;;;1.82;52.78;101054.62;105298;1270;69926;-77
2022/03/18 07:03:37;;;;;;;28.40;18.70;;;;;;;1.90;52.76;101051.65;105317;1270;73524;-77
2022/03/18 07:06:06;;;;;;;27.70;19.00;;;;;;;2.05;52.86;101059.03;104489;1270;1004156;-77
2022/03/18 07:08:33;;;;;;;25.90;19.60;;;;;;;2.20;52.52;101062.38;105411;1269;62146;-77
2022/03/18 07:11:01;;;;;;;24.20;17.50;;;;;;;2.31;52.33;101061.67;105386;1270;75505;-77
2022/03/18 07:13:28;;;;;;;24.10;17.40;;;;;;;2.35;52.06;101062.73;105120;1270;68872;-77
2022/03/18 07:15:54;;;;;;;27.00;18.90;;;;;;;2.43;52.07;101065.72;105300;1270;74215;-77
2022/03/18 07:18:21;;;;;;;27.70;17.70;;;;;;;2.49;51.90;101069.58;104984;1270;62131;-77
2022/03/18 07:20:47;;;;;;;25.10;16.90;;;;;;;2.58;51.92;101071.31;105237;1269;62066;-78
2022/03/18 07:23:16;;;;;;;21.00;16.40;;;;;;;2.67;51.66;101071.14;105054;1270;62167;-77
2022/03/18 07:25:48;;;;;;;29.20;17.90;;;;;;;2.68;51.28;101073.23;105270;1270;70143;-77
2022/03/18 07:28:16;;;;;;;28.60;19.40;;;;;;;2.67;51.17;101078.85;105236;1269;73225;-78
2022/03/18 07:30:44;;;;;;;26.70;18.00;;;;;;;2.73;51.46;101075.67;105271;1270;62197;-77
2022/03/18 07:33:11;;;;;;;24.60;17.40;;;;;;;2.83;51.35;101077.61;105227;1270;62269;-77
2022/03/18 07:35:38;;;;;;;26.50;19.20;;;;;;;2.89;50.99;101078.29;105548;1270;76582;-81
2022/03/18 07:38:08;;;;;;;26.40;18.00;;;;;;;2.89;50.59;101080.75;105829;1270;69231;-87
2022/03/18 07:40:39;;;;;;;26.60;18.50;;;;;;;2.81;50.34;101084.09;105785;1270;74504;-80
2022/03/18 07:43:07;;;;;;;28.00;19.20;;;;;;;2.77;50.42;101083.23;105584;1270;62151;-80
2022/03/18 07:45:35;;;;;;;25.60;18.00;;;;;;;2.80;50.47;101088.50;105714;1270;62506;-79
2022/03/18 07:48:07;;;;;;;24.80;17.70;;;;;;;2.89;50.54;101093.91;105353;1270;77264;-78
2022/03/18 07:50:36;;;;;;;25.30;18.20;;;;;;;2.94;50.25;101098.66;105338;1270;69409;-78
2022/03/18 07:53:05;;;;;;;27.10;18.10;;;;;;;2.93;50.30;101101.98;104575;1270;1003499;-79
2022/03/18 07:55:34;;;;;;;24.10;18.10;;;;;;;2.95;50.30;101101.45;105577;1270;62098;-86
2022/03/18 07:58:01;;;;;;;24.00;17.70;;;;;;;3.02;50.30;101100.39;105807;1270;61511;-87
2022/03/18 08:00:28;;;;;;;24.00;16.80;;;;;;;3.13;50.38;101102.48;105817;1270;76999;-88
2022/03/18 08:02:54;;;;;;;23.50;17.10;;;;;;;3.23;50.10;101098.75;105777;1270;69811;-84
2022/03/18 08:05:22;;;;;;;26.30;18.70;;;;;;;3.29;50.05;101104.17;105535;1270;74689;-80
2022/03/18 08:07:49;;;;;;;24.20;17.40;;;;;;;3.33;49.80;101107.51;105263;1270;62221;-81
2022/03/18 08:10:17;;;;;;;23.10;17.00;;;;;;;3.32;50.02;101111.73;105275;1269;62006;-79
2022/03/18 08:12:46;;;;;;;25.20;17.70;;;;;;;3.33;49.58;101112.60;105522;1270;76123;-81
2022/03/18 08:15:17;;;;;;;27.60;17.90;;;;;;;3.26;49.87;101112.44;105676;1270;69223;-82
2022/03/18 08:17:44;;;;;;;23.80;16.70;;;;;;;3.36;50.06;101116.81;105646;1269;73449;-81
2022/03/18 08:20:13;;;;;;;21.90;17.10;;;;;;;3.47;49.85;101121.33;105321;1270;62228;-83
2022/03/18 08:22:41;;;;;;;21.60;16.10;;;;;;;3.50;49.44;101120.80;105628;1270;61929;-79
2022/03/18 08:25:09;;;;;;;25.20;17.50;;;;;;;3.44;49.08;101123.64;105342;1269;77132;-81
2022/03/18 08:27:56;;;;;;;27.70;18.90;;;;;;;3.41;49.11;101126.27;105893;1270;70357;-80
2022/03/18 08:30:23;;;;;;;21.80;17.40;;;;;;;3.53;49.29;101132.03;105380;1274;71536;-80
2022/03/18 08:32:49;;;;;;;22.80;17.20;;;;;;;3.64;49.56;101135.16;105101;1274;62290;-80
2022/03/18 08:35:16;;;;;;;24.90;17.40;;;;;;;3.86;49.55;101135.06;105069;1273;62133;-82
2022/03/18 08:37:58;;;;;;;23.80;17.70;;;;;;;4.06;49.44;101130.02;105134;1273;76445;-80
2022/03/18 08:40:34;;;;;;;28.80;16.60;;;;;;;4.24;49.48;101129.38;105168;1274;69473;-81
2022/03/18 08:43:05;;;;;;;25.50;18.50;;;;;;;4.35;49.14;101129.65;105026;1274;73248;-80
2022/03/18 08:45:33;;;;;;;27.00;18.10;;;;;;;4.43;49.45;101131.72;105151;1272;62194;-82
2022/03/18 08:47:59;;;;;;;24.30;18.80;;;;;;;4.63;49.28;101136.13;105532;1274;62074;-81
2022/03/18 08:50:27;;;;;;;24.80;17.10;;;;;;;4.70;48.77;101138.17;105522;1274;75943;-80
2022/03/18 08:52:56;;;;;;;22.90;17.40;;;;;;;4.68;48.51;101141.20;105382;1274;68514;-81
2022/03/18 08:55:24;;;;;;;23.70;16.70;;;;;;;4.68;48.31;101139.27;106224;1274;73366;-80
2022/03/18 08:57:51;;;;;;;20.40;16.60;;;;;;;4.79;48.81;101137.58;105584;1274;62208;-81
2022/03/18 09:00:19;;;;;;;25.50;18.30;;;;;;;4.99;48.63;101140.38;105480;1274;62102;-80
2022/03/18 09:02:47;;;;;;;23.80;17.90;;;;;;;5.15;48.49;101139.52;105727;1272;76932;-82
2022/03/18 09:05:13;;;;;;;24.90;17.10;;;;;;;5.27;48.14;101137.81;107508;1273;70160;-78
2022/03/18 09:07:40;;;;;;;23.30;18.50;;;;;;;5.35;48.21;101131.39;108011;1270;73167;-80
2022/03/18 09:10:09;;;;;;;27.30;18.80;;;;;;;5.48;48.11;101133.52;108290;1270;59855;-81
2022/03/18 09:12:48;;;;;;;21.60;17.60;;;;;;;5.59;47.93;101133.04;108389;1269;60643;-81
2022/03/18 09:15:16;;;;;;;25.10;17.80;;;;;;;5.65;47.84;101137.02;107068;1270;76636;-81
2022/03/18 09:17:43;;;;;;;26.00;17.90;;;;;;;5.67;47.59;101140.71;105788;1270;69197;-82
2022/03/18 09:20:10;;;;;;;23.70;17.50;;;;;;;5.58;47.39;101143.98;105760;1269;73622;-83
2022/03/18 09:22:37;;;;;;;22.60;17.80;;;;;;;5.57;47.57;101147.89;105745;1269;61980;-82
2022/03/18 09:25:03;;;;;;;24.30;17.80;;;;;;;5.62;47.11;101153.10;105736;1270;62086;-81
2022/03/18 09:27:30;;;;;;;22.30;17.60;;;;;;;5.56;46.73;101154.25;105378;1270;76418;-82
2022/03/18 09:29:59;;;;;;;24.60;18.30;;;;;;;5.54;46.85;101154.79;105336;1270;69113;-81
2022/03/18 09:32:27;;;;;;;24.30;18.70;;;;;;;5.62;46.94;101156.81;105377;1270;73414;-81
2022/03/18 09:34:55;;;;;;;28.40;18.90;;;;;;;5.67;46.47;101156.40;105658;1270;62145;-82
2022/03/18 09:37:22;;;;;;;22.80;18.40;;;;;;;5.68;46.80;101156.91;105142;1270;62223;-81
2022/03/18 09:39:49;;;;;;;25.20;17.40;;;;;;;5.81;47.35;101156.39;105283;1269;76882;-81
2022/03/18 09:42:16;;;;;;;24.20;19.20;;;;;;;6.02;47.14;101155.81;105305;1269;67302;-82
2022/03/18 09:44:43;;;;;;;27.80;20.70;;;;;;;6.10;46.79;101158.35;105276;1270;73272;-81
2022/03/18 09:47:10;;;;;;;29.20;20.50;;;;;;;6.15;46.93;101160.93;105441;1270;62269;-81
2022/03/18 09:49:37;;;;;;;29.80;19.90;;;;;;;6.26;46.83;101163.96;105607;1270;62069;-81
2022/03/18 09:52:05;;;;;;;29.80;19.90;;;;;;;6.34;46.64;101167.00;105619;1270;77144;-81
2022/03/18 09:54:32;;;;;;;22.90;18.60;;;;;;;6.39;46.59;101162.88;105485;1270;69627;-82
2022/03/18 09:57:01;;;;;;;24.60;19.20;;;;;;;6.51;47.21;101164.98;105300;1270;74437;-81
2022/03/18 09:59:28;;;;;;;26.20;19.80;;;;;;;6.69;46.92;101165.60;105267;1270;62063;-80
2022/03/18 10:02:21;;;;;;;24.60;18.00;;;;;;;6.77;46.17;101166.52;105425;1270;62068;-81
2022/03/18 10:04:56;;;;;;;29.20;20.00;;;;;;;6.77;46.36;101164.75;105283;1270;77303;-79
2022/03/18 10:07:25;;;;;;;26.00;19.40;;;;;;;6.86;45.97;101165.50;105789;1270;69133;-80
2022/03/18 10:10:15;;;;;;;27.80;19.60;;;;;;;6.85;45.78;101164.28;105320;1270;74183;-81
2022/03/18 10:12:54;;;;;;;26.30;21.20;;;;;;;6.88;45.92;101166.15;105297;1269;62413;-79
2022/03/18 10:15:24;;;;;;;30.60;20.80;;;;;;;6.98;45.90;101165.98;105301;1270;62208;-81
2022/03/18 10:17:55;;;;;;;26.70;20.30;;;;;;;7.07;45.75;101161.94;106015;1269;75806;-82
2022/03/18 10:20:40;;;;;;;26.10;19.40;;;;;;;7.10;45.66;101159.58;105378;1270;70093;-82
2022/03/18 10:23:16;;;;;;;25.70;19.50;;;;;;;7.24;46.09;101158.09;105530;1270;71023;-81
2022/03/18 10:25:50;;;;;;;33.00;22.10;;;;;;;7.44;45.95;101164.98;105626;1270;62407;-81
2022/03/18 10:28:31;;;;;;;30.90;21.30;;;;;;;7.52;45.46;101159.88;105378;1270;61957;-80
2022/03/18 10:31:15;;;;;;;28.70;21.40;;;;;;;7.62;45.81;101159.66;105592;1270;77396;-81
2022/03/18 10:39:31;;;;;;;29.60;22.10;;;;;;;8.03;45.42;101159.89;105297;1270;62061;-81
2022/03/18 10:42:02;;;;;;;31.10;22.50;;;;;;;8.02;45.26;101160.06;105281;1270;62082;-81
2022/03/18 10:44:54;;;;;;;28.10;21.50;;;;;;;8.08;45.57;101165.97;105061;1270;76200;-81
2022/03/18 10:47:41;;;;;;;33.20;23.80;;;;;;;8.17;45.37;101166.31;105297;1270;69175;-81
2022/03/18 10:50:10;;;;;;;30.20;23.30;;;;;;;8.25;45.53;101161.00;105045;1271;73423;-82
2022/03/18 10:52:39;;;;;;;30.70;23.40;;;;;;;8.34;45.53;101159.71;105397;1270;62088;-81
2022/03/18 10:55:17;;;;;;;27.90;22.60;;;;;;;8.45;45.51;101158.63;105287;1270;62510;-81
2022/03/18 10:58:02;;;;;;;30.40;23.20;;;;;;;8.52;45.60;101157.73;105512;1271;75914;-81
2022/03/18 11:00:31;;;;;;;38.10;26.30;;;;;;;8.61;45.85;101153.79;105657;1270;70412;-82
2022/03/18 11:03:00;;;;;;;32.50;25.00;;;;;;;8.70;45.38;101158.35;105689;1270;72848;-81
2022/03/18 11:05:35;;;;;;;33.60;25.30;;;;;;;8.71;45.10;101159.04;105415;1270;62158;-83
2022/03/18 11:08:04;;;;;;;31.30;25.10;;;;;;;8.73;45.42;101155.83;105280;1270;62117;-82
2022/03/18 11:13:25;;;;;;;31.80;24.40;;;;;;;8.93;45.60;101151.95;105304;1270;71240;-82
2022/03/18 11:15:53;;;;;;;30.90;23.20;;;;;;;9.01;45.04;101157.05;105195;1271;72712;-82
2022/03/18 11:18:20;;;;;;;34.80;25.30;;;;;;;8.96;44.40;101154.70;105377;1270;62107;-81
2022/03/18 11:20:50;;;;;;;30.60;23.20;;;;;;;8.94;44.37;101154.92;105786;1270;62053;-82
2022/03/18 11:23:24;;;;;;;36.80;25.10;;;;;;;8.96;44.33;101151.14;105396;1270;76657;-82
2022/03/18 11:25:54;;;;;;;31.40;23.40;;;;;;;9.00;44.21;101154.80;105635;1270;69198;-83
2022/03/18 11:28:22;;;;;;;29.10;24.30;;;;;;;8.99;44.15;101153.73;105709;1270;74453;-82
2022/03/18 11:31:01;;;;;;;32.70;25.60;;;;;;;9.00;44.14;101154.79;105579;1270;61971;-81
2022/03/18 11:33:29;;;;;;;34.60;24.30;;;;;;;9.06;44.27;101151.63;105449;1270;62079;-81